sensor_id;sensor_type;location;lat;lon;timestamp;temperature;humidity
18581;DHT22;9420;50.876;7.012;2022-08-03T00:01:05;21.10;99.90
18581;DHT22;9420;50.876;7.012;2022-08-03T00:03:32;21.10;99.90
18581;DHT22;9420;50.876;7.012;2022-08-03T00:06:01;21.10;99.90
18581;DHT22;9420;50.876;7.012;2022-08-03T00:08:29;20.90;99.90
18581;DHT22;9420;50.876;7.012;2022-08-03T00:10:56;20.90;99.90
18581;DHT22;9420;50.876;7.012;2022-08-03T00:13:23;20.90;99.90
18581;DHT22;9420;50.876;7.012;2022-08-03T00:15:51;20.90;99.90
18581;DHT22;9420;50.876;7.012;2022-08-03T00:18:19;20.90;99.90
18581;DHT22;9420;50.876;7.012;2022-08-03T00:20:46;20.90;99.90
18581;DHT22;9420;50.876;7.012;2022-08-03T00:23:15;20.90;99.90
18581;DHT22;9420;50.876;7.012;2022-08-03T00:25:42;20.80;99.90
18581;DHT22;9420;50.876;7.012;2022-08-03T00:28:09;20.70;99.90
18581;DHT22;9420;50.876;7.012;2022-08-03T00:30:37;20.70;99.90
18581;DHT22;9420;50.876;7.012;2022-08-03T00:33:04;20.70;99.90
18581;DHT22;9420;50.876;7.012;2022-08-03T00:35:32;20.60;99.90
18581;DHT22;9420;50.876;7.012;2022-08-03T00:37:59;20.60;99.90
18581;DHT22;9420;50.876;7.012;2022-08-03T00:40:27;20.60;99.90
18581;DHT22;9420;50.876;7.012;2022-08-03T00:42:56;20.60;99.90
18581;DHT22;9420;50.876;7.012;2022-08-03T00:45:26;20.50;99.90
18581;DHT22;9420;50.876;7.012;2022-08-03T00:47:54;20.40;99.90
18581;DHT22;9420;50.876;7.012;2022-08-03T00:50:23;20.30;99.90
18581;DHT22;9420;50.876;7.012;2022-08-03T00:52:53;20.30;99.90
18581;DHT22;9420;50.876;7.012;2022-08-03T00:55:22;20.30;99.90
18581;DHT22;9420;50.876;7.012;2022-08-03T00:57:51;20.30;99.90
18581;DHT22;9420;50.876;7.012;2022-08-03T01:00:20;20.30;99.90
18581;DHT22;9420;50.876;7.012;2022-08-03T01:02:50;20.30;99.90
18581;DHT22;9420;50.876;7.012;2022-08-03T01:05:18;20.20;99.90
18581;DHT22;9420;50.876;7.012;2022-08-03T01:07:57;20.20;99.90
18581;DHT22;9420;50.876;7.012;2022-08-03T01:10:35;20.20;99.90
18581;DHT22;9420;50.876;7.012;2022-08-03T01:13:15;20.20;99.90
18581;DHT22;9420;50.876;7.012;2022-08-03T01:15:54;20.20;99.90
18581;DHT22;9420;50.876;7.012;2022-08-03T01:18:31;20.10;99.90
18581;DHT22;9420;50.876;7.012;2022-08-03T01:21:09;20.10;99.90
18581;DHT22;9420;50.876;7.012;2022-08-03T01:23:53;20.00;99.90
18581;DHT22;9420;50.876;7.012;2022-08-03T01:26:54;20.10;99.90
18581;DHT22;9420;50.876;7.012;2022-08-03T01:29:51;20.10;99.90
18581;DHT22;9420;50.876;7.012;2022-08-03T01:32:33;20.10;99.90
18581;DHT22;9420;50.876;7.012;2022-08-03T01:35:09;20.10;99.90
18581;DHT22;9420;50.876;7.012;2022-08-03T01:37:42;20.00;99.90
18581;DHT22;9420;50.876;7.012;2022-08-03T01:40:14;20.00;99.90
18581;DHT22;9420;50.876;7.012;2022-08-03T01:42:43;19.90;99.90
18581;DHT22;9420;50.876;7.012;2022-08-03T01:45:15;19.90;99.90
18581;DHT22;9420;50.876;7.012;2022-08-03T01:47:44;19.90;99.90
18581;DHT22;9420;50.876;7.012;2022-08-03T01:50:13;19.80;99.90
18581;DHT22;9420;50.876;7.012;2022-08-03T01:52:43;19.90;99.90
18581;DHT22;9420;50.876;7.012;2022-08-03T01:55:13;19.80;99.90
18581;DHT22;9420;50.876;7.012;2022-08-03T01:57:43;19.90;99.90
18581;DHT22;9420;50.876;7.012;2022-08-03T02:00:14;19.80;99.90
18581;DHT22;9420;50.876;7.012;2022-08-03T02:02:42;19.80;99.90
18581;DHT22;9420;50.876;7.012;2022-08-03T02:05:14;19.80;99.90
18581;DHT22;9420;50.876;7.012;2022-08-03T02:07:43;19.80;99.90
18581;DHT22;9420;50.876;7.012;2022-08-03T02:10:13;19.70;99.90
18581;DHT22;9420;50.876;7.012;2022-08-03T02:12:44;19.70;99.90
18581;DHT22;9420;50.876;7.012;2022-08-03T02:15:15;19.70;99.90
18581;DHT22;9420;50.876;7.012;2022-08-03T02:17:46;19.70;99.90
18581;DHT22;9420;50.876;7.012;2022-08-03T02:20:15;19.60;99.90
18581;DHT22;9420;50.876;7.012;2022-08-03T02:22:44;19.50;99.90
18581;DHT22;9420;50.876;7.012;2022-08-03T02:25:14;19.50;99.90
18581;DHT22;9420;50.876;7.012;2022-08-03T02:27:50;19.60;99.90
18581;DHT22;9420;50.876;7.012;2022-08-03T02:30:23;19.50;99.90
18581;DHT22;9420;50.876;7.012;2022-08-03T02:32:57;19.50;99.90
18581;DHT22;9420;50.876;7.012;2022-08-03T02:35:28;19.40;99.90
18581;DHT22;9420;50.876;7.012;2022-08-03T02:38:01;19.50;99.90
18581;DHT22;9420;50.876;7.012;2022-08-03T02:40:31;19.50;99.90
18581;DHT22;9420;50.876;7.012;2022-08-03T02:43:01;19.50;99.90
18581;DHT22;9420;50.876;7.012;2022-08-03T02:45:36;19.40;99.90
18581;DHT22;9420;50.876;7.012;2022-08-03T02:48:10;19.40;99.90
18581;DHT22;9420;50.876;7.012;2022-08-03T02:50:42;19.50;99.90
18581;DHT22;9420;50.876;7.012;2022-08-03T02:53:11;19.50;99.90
18581;DHT22;9420;50.876;7.012;2022-08-03T02:55:42;19.40;99.90
18581;DHT22;9420;50.876;7.012;2022-08-03T02:58:13;19.50;99.90
18581;DHT22;9420;50.876;7.012;2022-08-03T03:00:47;19.50;99.90
18581;DHT22;9420;50.876;7.012;2022-08-03T03:03:17;19.50;99.90
18581;DHT22;9420;50.876;7.012;2022-08-03T03:05:47;19.40;99.90
18581;DHT22;9420;50.876;7.012;2022-08-03T03:08:18;19.30;99.90
18581;DHT22;9420;50.876;7.012;2022-08-03T03:10:46;19.30;99.90
18581;DHT22;9420;50.876;7.012;2022-08-03T03:13:14;19.30;99.90
18581;DHT22;9420;50.876;7.012;2022-08-03T03:15:43;19.20;99.90
18581;DHT22;9420;50.876;7.012;2022-08-03T03:18:15;19.30;99.90
18581;DHT22;9420;50.876;7.012;2022-08-03T03:20:44;19.20;99.90
18581;DHT22;9420;50.876;7.012;2022-08-03T03:23:15;19.20;99.90
18581;DHT22;9420;50.876;7.012;2022-08-03T03:25:44;19.20;99.90
18581;DHT22;9420;50.876;7.012;2022-08-03T03:28:12;19.10;99.90
18581;DHT22;9420;50.876;7.012;2022-08-03T03:30:40;19.10;99.90
18581;DHT22;9420;50.876;7.012;2022-08-03T03:33:08;19.10;99.90
18581;DHT22;9420;50.876;7.012;2022-08-03T03:35:37;19.00;99.90
18581;DHT22;9420;50.876;7.012;2022-08-03T03:38:05;19.00;99.90
18581;DHT22;9420;50.876;7.012;2022-08-03T03:40:34;19.00;99.90
18581;DHT22;9420;50.876;7.012;2022-08-03T03:43:01;19.00;99.90
18581;DHT22;9420;50.876;7.012;2022-08-03T03:45:30;19.00;99.90
18581;DHT22;9420;50.876;7.012;2022-08-03T03:47:58;19.00;99.90
18581;DHT22;9420;50.876;7.012;2022-08-03T03:50:27;19.00;99.90
18581;DHT22;9420;50.876;7.012;2022-08-03T03:52:57;18.90;99.90
18581;DHT22;9420;50.876;7.012;2022-08-03T03:55:25;18.90;99.90
18581;DHT22;9420;50.876;7.012;2022-08-03T03:57:52;18.90;99.90
18581;DHT22;9420;50.876;7.012;2022-08-03T04:00:19;18.80;99.90
18581;DHT22;9420;50.876;7.012;2022-08-03T04:02:46;18.80;99.90
18581;DHT22;9420;50.876;7.012;2022-08-03T04:05:14;18.90;99.90
18581;DHT22;9420;50.876;7.012;2022-08-03T04:08:03;18.80;99.90
18581;DHT22;9420;50.876;7.012;2022-08-03T04:10:55;19.00;99.90
18581;DHT22;9420;50.876;7.012;2022-08-03T04:13:34;18.90;99.90
18581;DHT22;9420;50.876;7.012;2022-08-03T04:16:05;18.90;99.90
18581;DHT22;9420;50.876;7.012;2022-08-03T04:18:37;18.90;99.90
18581;DHT22;9420;50.876;7.012;2022-08-03T04:21:09;19.00;99.90
18581;DHT22;9420;50.876;7.012;2022-08-03T04:23:43;19.00;99.90
18581;DHT22;9420;50.876;7.012;2022-08-03T04:26:16;19.00;99.90
18581;DHT22;9420;50.876;7.012;2022-08-03T04:28:47;18.90;99.90
18581;DHT22;9420;50.876;7.012;2022-08-03T04:31:17;18.80;99.90
18581;DHT22;9420;50.876;7.012;2022-08-03T04:33:47;18.80;99.90
18581;DHT22;9420;50.876;7.012;2022-08-03T04:36:20;18.70;99.90
18581;DHT22;9420;50.876;7.012;2022-08-03T04:38:58;18.70;99.90
18581;DHT22;9420;50.876;7.012;2022-08-03T04:41:27;18.70;99.90
18581;DHT22;9420;50.876;7.012;2022-08-03T04:43:57;18.80;99.90
18581;DHT22;9420;50.876;7.012;2022-08-03T04:46:27;18.80;99.90
18581;DHT22;9420;50.876;7.012;2022-08-03T04:48:58;18.80;99.90
18581;DHT22;9420;50.876;7.012;2022-08-03T04:51:26;18.80;99.90
18581;DHT22;9420;50.876;7.012;2022-08-03T04:53:56;18.90;99.90
18581;DHT22;9420;50.876;7.012;2022-08-03T04:56:23;18.90;99.90
18581;DHT22;9420;50.876;7.012;2022-08-03T04:58:51;18.90;99.90
18581;DHT22;9420;50.876;7.012;2022-08-03T05:01:19;19.00;99.90
18581;DHT22;9420;50.876;7.012;2022-08-03T05:03:47;19.00;99.90
18581;DHT22;9420;50.876;7.012;2022-08-03T05:06:14;19.10;99.90
18581;DHT22;9420;50.876;7.012;2022-08-03T05:08:41;19.30;99.90
18581;DHT22;9420;50.876;7.012;2022-08-03T05:11:09;19.30;99.90
18581;DHT22;9420;50.876;7.012;2022-08-03T05:13:36;19.40;99.90
18581;DHT22;9420;50.876;7.012;2022-08-03T05:16:04;19.50;99.90
18581;DHT22;9420;50.876;7.012;2022-08-03T05:18:31;19.40;99.90
18581;DHT22;9420;50.876;7.012;2022-08-03T05:20:58;19.50;99.90
18581;DHT22;9420;50.876;7.012;2022-08-03T05:23:25;19.50;99.90
18581;DHT22;9420;50.876;7.012;2022-08-03T05:25:52;19.50;99.90
18581;DHT22;9420;50.876;7.012;2022-08-03T05:28:20;19.50;99.90
18581;DHT22;9420;50.876;7.012;2022-08-03T05:30:47;19.60;99.90
18581;DHT22;9420;50.876;7.012;2022-08-03T05:33:14;19.50;99.90
18581;DHT22;9420;50.876;7.012;2022-08-03T05:35:42;19.60;99.90
18581;DHT22;9420;50.876;7.012;2022-08-03T05:38:10;19.70;99.90
18581;DHT22;9420;50.876;7.012;2022-08-03T05:40:37;19.90;99.90
18581;DHT22;9420;50.876;7.012;2022-08-03T05:43:04;19.90;99.90
18581;DHT22;9420;50.876;7.012;2022-08-03T05:45:32;20.10;99.90
18581;DHT22;9420;50.876;7.012;2022-08-03T05:47:59;20.20;99.90
18581;DHT22;9420;50.876;7.012;2022-08-03T05:50:26;20.30;99.90
18581;DHT22;9420;50.876;7.012;2022-08-03T05:52:54;20.40;99.90
18581;DHT22;9420;50.876;7.012;2022-08-03T05:55:22;20.50;99.90
18581;DHT22;9420;50.876;7.012;2022-08-03T05:57:49;20.50;99.90
18581;DHT22;9420;50.876;7.012;2022-08-03T06:00:17;20.60;99.90
18581;DHT22;9420;50.876;7.012;2022-08-03T06:02:45;20.70;99.90
18581;DHT22;9420;50.876;7.012;2022-08-03T06:05:13;20.70;99.90
18581;DHT22;9420;50.876;7.012;2022-08-03T06:07:40;20.90;99.90
18581;DHT22;9420;50.876;7.012;2022-08-03T06:10:07;21.00;99.90
18581;DHT22;9420;50.876;7.012;2022-08-03T06:12:35;21.10;99.90
18581;DHT22;9420;50.876;7.012;2022-08-03T06:15:04;21.20;99.90
18581;DHT22;9420;50.876;7.012;2022-08-03T06:17:31;21.40;99.90
18581;DHT22;9420;50.876;7.012;2022-08-03T06:19:59;21.40;99.90
18581;DHT22;9420;50.876;7.012;2022-08-03T06:22:26;21.50;99.90
18581;DHT22;9420;50.876;7.012;2022-08-03T06:24:53;21.50;99.90
18581;DHT22;9420;50.876;7.012;2022-08-03T06:27:20;21.60;99.90
18581;DHT22;9420;50.876;7.012;2022-08-03T06:29:47;21.70;99.90
18581;DHT22;9420;50.876;7.012;2022-08-03T06:32:14;21.80;99.90
18581;DHT22;9420;50.876;7.012;2022-08-03T06:34:42;22.00;99.90
18581;DHT22;9420;50.876;7.012;2022-08-03T06:37:10;22.10;99.90
18581;DHT22;9420;50.876;7.012;2022-08-03T06:39:37;22.20;99.90
18581;DHT22;9420;50.876;7.012;2022-08-03T06:42:04;22.40;99.90
18581;DHT22;9420;50.876;7.012;2022-08-03T06:44:31;22.50;99.90
18581;DHT22;9420;50.876;7.012;2022-08-03T06:46:58;22.60;99.90
18581;DHT22;9420;50.876;7.012;2022-08-03T06:49:25;22.60;99.90
18581;DHT22;9420;50.876;7.012;2022-08-03T06:51:52;22.80;99.90
18581;DHT22;9420;50.876;7.012;2022-08-03T06:54:22;22.70;99.90
18581;DHT22;9420;50.876;7.012;2022-08-03T06:56:49;22.90;99.90
18581;DHT22;9420;50.876;7.012;2022-08-03T06:59:17;23.00;99.90
18581;DHT22;9420;50.876;7.012;2022-08-03T07:01:44;23.10;99.90
18581;DHT22;9420;50.876;7.012;2022-08-03T07:04:11;23.30;99.90
18581;DHT22;9420;50.876;7.012;2022-08-03T07:06:38;23.30;99.90
18581;DHT22;9420;50.876;7.012;2022-08-03T07:09:05;23.50;99.90
18581;DHT22;9420;50.876;7.012;2022-08-03T07:11:33;23.60;99.90
18581;DHT22;9420;50.876;7.012;2022-08-03T07:14:00;23.70;99.90
18581;DHT22;9420;50.876;7.012;2022-08-03T07:16:27;23.80;99.90
18581;DHT22;9420;50.876;7.012;2022-08-03T07:18:54;24.00;99.90
18581;DHT22;9420;50.876;7.012;2022-08-03T07:21:21;24.10;99.90
18581;DHT22;9420;50.876;7.012;2022-08-03T07:23:48;24.40;99.90
18581;DHT22;9420;50.876;7.012;2022-08-03T07:26:15;24.50;99.90
18581;DHT22;9420;50.876;7.012;2022-08-03T07:28:44;24.70;99.90
18581;DHT22;9420;50.876;7.012;2022-08-03T07:31:11;24.70;99.90
18581;DHT22;9420;50.876;7.012;2022-08-03T07:33:38;24.80;99.90
18581;DHT22;9420;50.876;7.012;2022-08-03T07:36:05;24.90;99.90
18581;DHT22;9420;50.876;7.012;2022-08-03T07:38:34;25.00;99.90
18581;DHT22;9420;50.876;7.012;2022-08-03T07:41:01;25.10;99.90
18581;DHT22;9420;50.876;7.012;2022-08-03T07:43:29;25.20;99.90
18581;DHT22;9420;50.876;7.012;2022-08-03T07:45:57;25.10;99.90
18581;DHT22;9420;50.876;7.012;2022-08-03T07:48:24;25.10;99.90
18581;DHT22;9420;50.876;7.012;2022-08-03T07:50:51;25.20;99.90
18581;DHT22;9420;50.876;7.012;2022-08-03T07:53:18;25.40;99.90
18581;DHT22;9420;50.876;7.012;2022-08-03T07:55:45;25.60;99.90
18581;DHT22;9420;50.876;7.012;2022-08-03T07:58:12;25.80;99.90
18581;DHT22;9420;50.876;7.012;2022-08-03T08:00:42;25.90;99.90
18581;DHT22;9420;50.876;7.012;2022-08-03T08:03:11;25.90;99.90
18581;DHT22;9420;50.876;7.012;2022-08-03T08:05:38;25.90;99.90
18581;DHT22;9420;50.876;7.012;2022-08-03T08:08:06;26.10;99.90
18581;DHT22;9420;50.876;7.012;2022-08-03T08:10:33;26.20;99.90
18581;DHT22;9420;50.876;7.012;2022-08-03T08:13:00;26.40;99.90
18581;DHT22;9420;50.876;7.012;2022-08-03T08:15:28;26.30;99.90
18581;DHT22;9420;50.876;7.012;2022-08-03T08:17:56;26.50;99.90
18581;DHT22;9420;50.876;7.012;2022-08-03T08:20:28;26.70;99.90
18581;DHT22;9420;50.876;7.012;2022-08-03T08:22:58;26.60;99.90
18581;DHT22;9420;50.876;7.012;2022-08-03T08:25:26;26.70;99.90
18581;DHT22;9420;50.876;7.012;2022-08-03T08:27:54;26.60;99.90
18581;DHT22;9420;50.876;7.012;2022-08-03T08:30:22;26.60;99.90
18581;DHT22;9420;50.876;7.012;2022-08-03T08:32:50;26.80;99.90
18581;DHT22;9420;50.876;7.012;2022-08-03T08:35:17;27.00;99.90
18581;DHT22;9420;50.876;7.012;2022-08-03T08:37:46;27.00;99.90
18581;DHT22;9420;50.876;7.012;2022-08-03T08:40:13;27.20;99.90
18581;DHT22;9420;50.876;7.012;2022-08-03T08:42:42;27.50;99.90
18581;DHT22;9420;50.876;7.012;2022-08-03T08:45:10;27.70;99.90
18581;DHT22;9420;50.876;7.012;2022-08-03T08:47:40;27.90;99.90
18581;DHT22;9420;50.876;7.012;2022-08-03T08:50:11;28.20;99.90
18581;DHT22;9420;50.876;7.012;2022-08-03T08:52:40;28.20;99.90
18581;DHT22;9420;50.876;7.012;2022-08-03T08:55:13;28.40;99.90
18581;DHT22;9420;50.876;7.012;2022-08-03T08:57:45;28.50;99.90
18581;DHT22;9420;50.876;7.012;2022-08-03T09:00:15;28.70;99.90
18581;DHT22;9420;50.876;7.012;2022-08-03T09:02:44;29.00;99.90
18581;DHT22;9420;50.876;7.012;2022-08-03T09:05:13;29.10;99.90
18581;DHT22;9420;50.876;7.012;2022-08-03T09:07:43;29.30;99.90
18581;DHT22;9420;50.876;7.012;2022-08-03T09:10:14;29.50;99.90
18581;DHT22;9420;50.876;7.012;2022-08-03T09:12:45;29.60;99.90
18581;DHT22;9420;50.876;7.012;2022-08-03T09:15:22;29.60;99.90
18581;DHT22;9420;50.876;7.012;2022-08-03T09:17:52;29.60;99.90
18581;DHT22;9420;50.876;7.012;2022-08-03T09:20:22;29.30;99.90
18581;DHT22;9420;50.876;7.012;2022-08-03T09:22:56;29.40;99.90
18581;DHT22;9420;50.876;7.012;2022-08-03T09:25:33;29.90;99.90
18581;DHT22;9420;50.876;7.012;2022-08-03T09:28:07;29.70;99.90
18581;DHT22;9420;50.876;7.012;2022-08-03T09:30:36;29.70;99.90
18581;DHT22;9420;50.876;7.012;2022-08-03T09:33:06;29.70;99.90
18581;DHT22;9420;50.876;7.012;2022-08-03T09:35:40;29.80;99.90
18581;DHT22;9420;50.876;7.012;2022-08-03T09:38:11;30.10;99.90
18581;DHT22;9420;50.876;7.012;2022-08-03T09:40:42;30.40;99.90
18581;DHT22;9420;50.876;7.012;2022-08-03T09:43:10;30.10;99.90
18581;DHT22;9420;50.876;7.012;2022-08-03T09:45:39;30.10;99.90
18581;DHT22;9420;50.876;7.012;2022-08-03T09:48:22;30.20;99.90
18581;DHT22;9420;50.876;7.012;2022-08-03T09:50:52;30.30;99.90
18581;DHT22;9420;50.876;7.012;2022-08-03T09:53:20;30.40;99.90
18581;DHT22;9420;50.876;7.012;2022-08-03T09:55:54;30.30;99.90
18581;DHT22;9420;50.876;7.012;2022-08-03T09:58:23;30.50;99.90
18581;DHT22;9420;50.876;7.012;2022-08-03T10:00:52;30.60;99.90
18581;DHT22;9420;50.876;7.012;2022-08-03T10:03:21;30.50;99.90
18581;DHT22;9420;50.876;7.012;2022-08-03T10:05:49;30.60;99.90
18581;DHT22;9420;50.876;7.012;2022-08-03T10:08:18;30.60;99.90
18581;DHT22;9420;50.876;7.012;2022-08-03T10:10:47;30.50;99.90
18581;DHT22;9420;50.876;7.012;2022-08-03T10:13:21;31.10;99.90
18581;DHT22;9420;50.876;7.012;2022-08-03T10:15:48;31.10;99.90
18581;DHT22;9420;50.876;7.012;2022-08-03T10:18:15;31.50;99.90
18581;DHT22;9420;50.876;7.012;2022-08-03T10:20:45;31.60;99.60
18581;DHT22;9420;50.876;7.012;2022-08-03T10:23:16;31.80;97.70
18581;DHT22;9420;50.876;7.012;2022-08-03T10:25:46;32.20;98.10
18581;DHT22;9420;50.876;7.012;2022-08-03T10:28:19;32.50;97.40
18581;DHT22;9420;50.876;7.012;2022-08-03T10:30:49;32.90;96.60
18581;DHT22;9420;50.876;7.012;2022-08-03T10:33:19;32.80;95.40
18581;DHT22;9420;50.876;7.012;2022-08-03T10:35:51;33.00;94.70
18581;DHT22;9420;50.876;7.012;2022-08-03T10:38:36;33.10;95.50
18581;DHT22;9420;50.876;7.012;2022-08-03T10:41:07;32.80;92.80
18581;DHT22;9420;50.876;7.012;2022-08-03T10:43:47;33.00;94.60
18581;DHT22;9420;50.876;7.012;2022-08-03T10:46:18;33.20;93.60
18581;DHT22;9420;50.876;7.012;2022-08-03T10:48:47;33.00;94.20
18581;DHT22;9420;50.876;7.012;2022-08-03T10:51:16;33.20;91.80
18581;DHT22;9420;50.876;7.012;2022-08-03T10:53:45;33.70;91.80
18581;DHT22;9420;50.876;7.012;2022-08-03T10:56:37;33.80;90.70
18581;DHT22;9420;50.876;7.012;2022-08-03T10:59:57;34.20;90.60
18581;DHT22;9420;50.876;7.012;2022-08-03T11:03:02;34.10;87.70
18581;DHT22;9420;50.876;7.012;2022-08-03T11:05:36;34.20;86.90
18581;DHT22;9420;50.876;7.012;2022-08-03T11:08:27;34.80;86.70
18581;DHT22;9420;50.876;7.012;2022-08-03T11:11:01;34.40;81.90
18581;DHT22;9420;50.876;7.012;2022-08-03T11:13:57;34.90;83.20
18581;DHT22;9420;50.876;7.012;2022-08-03T11:16:29;35.50;83.10
18581;DHT22;9420;50.876;7.012;2022-08-03T11:19:00;35.90;82.50
18581;DHT22;9420;50.876;7.012;2022-08-03T11:21:56;36.10;80.50
18581;DHT22;9420;50.876;7.012;2022-08-03T11:24:55;36.30;80.50
18581;DHT22;9420;50.876;7.012;2022-08-03T11:27:23;36.10;81.40
18581;DHT22;9420;50.876;7.012;2022-08-03T11:29:57;36.70;77.00
18581;DHT22;9420;50.876;7.012;2022-08-03T11:32:52;36.50;74.20
18581;DHT22;9420;50.876;7.012;2022-08-03T11:35:24;37.10;76.30
18581;DHT22;9420;50.876;7.012;2022-08-03T11:38:07;37.50;80.00
18581;DHT22;9420;50.876;7.012;2022-08-03T11:40:42;37.70;72.90
18581;DHT22;9420;50.876;7.012;2022-08-03T11:43:42;37.00;70.20
18581;DHT22;9420;50.876;7.012;2022-08-03T11:46:12;37.40;70.60
18581;DHT22;9420;50.876;7.012;2022-08-03T11:48:46;38.00;73.90
18581;DHT22;9420;50.876;7.012;2022-08-03T11:51:21;38.60;69.00
18581;DHT22;9420;50.876;7.012;2022-08-03T11:53:51;38.30;67.50
18581;DHT22;9420;50.876;7.012;2022-08-03T11:56:20;37.30;65.80
18581;DHT22;9420;50.876;7.012;2022-08-03T11:58:48;37.60;66.40
18581;DHT22;9420;50.876;7.012;2022-08-03T12:01:18;37.20;67.30
18581;DHT22;9420;50.876;7.012;2022-08-03T12:03:47;37.00;65.80
18581;DHT22;9420;50.876;7.012;2022-08-03T12:06:16;37.00;66.40
18581;DHT22;9420;50.876;7.012;2022-08-03T12:08:44;37.50;66.60
18581;DHT22;9420;50.876;7.012;2022-08-03T12:11:13;37.20;66.60
18581;DHT22;9420;50.876;7.012;2022-08-03T12:13:43;36.80;67.40
18581;DHT22;9420;50.876;7.012;2022-08-03T12:16:16;36.10;66.90
18581;DHT22;9420;50.876;7.012;2022-08-03T12:18:46;35.70;69.00
18581;DHT22;9420;50.876;7.012;2022-08-03T12:21:20;35.60;68.10
18581;DHT22;9420;50.876;7.012;2022-08-03T12:23:50;35.90;71.60
18581;DHT22;9420;50.876;7.012;2022-08-03T12:26:21;36.40;72.70
18581;DHT22;9420;50.876;7.012;2022-08-03T12:28:49;36.90;70.40
18581;DHT22;9420;50.876;7.012;2022-08-03T12:31:16;37.50;68.80
18581;DHT22;9420;50.876;7.012;2022-08-03T12:33:59;37.80;64.30
18581;DHT22;9420;50.876;7.012;2022-08-03T12:36:29;38.30;64.80
18581;DHT22;9420;50.876;7.012;2022-08-03T12:38:59;38.30;65.40
18581;DHT22;9420;50.876;7.012;2022-08-03T12:41:29;39.10;61.10
18581;DHT22;9420;50.876;7.012;2022-08-03T12:43:58;39.20;60.40
18581;DHT22;9420;50.876;7.012;2022-08-03T12:46:30;39.60;60.60
18581;DHT22;9420;50.876;7.012;2022-08-03T12:49:03;40.00;60.20
18581;DHT22;9420;50.876;7.012;2022-08-03T12:51:35;40.10;58.10
18581;DHT22;9420;50.876;7.012;2022-08-03T12:54:04;39.40;58.40
18581;DHT22;9420;50.876;7.012;2022-08-03T12:56:32;38.70;58.20
18581;DHT22;9420;50.876;7.012;2022-08-03T12:58:59;38.50;59.30
18581;DHT22;9420;50.876;7.012;2022-08-03T13:01:35;39.00;58.30
18581;DHT22;9420;50.876;7.012;2022-08-03T13:04:04;39.10;56.90
18581;DHT22;9420;50.876;7.012;2022-08-03T13:06:31;39.70;57.00
18581;DHT22;9420;50.876;7.012;2022-08-03T13:09:03;40.20;56.10
18581;DHT22;9420;50.876;7.012;2022-08-03T13:11:31;40.90;55.90
18581;DHT22;9420;50.876;7.012;2022-08-03T13:13:59;41.10;55.30
18581;DHT22;9420;50.876;7.012;2022-08-03T13:16:27;41.60;54.70
18581;DHT22;9420;50.876;7.012;2022-08-03T13:18:54;42.20;53.70
18581;DHT22;9420;50.876;7.012;2022-08-03T13:21:22;42.00;53.20
18581;DHT22;9420;50.876;7.012;2022-08-03T13:23:49;41.60;53.40
18581;DHT22;9420;50.876;7.012;2022-08-03T13:26:16;41.90;52.60
18581;DHT22;9420;50.876;7.012;2022-08-03T13:28:43;42.10;52.90
18581;DHT22;9420;50.876;7.012;2022-08-03T13:31:10;42.60;51.40
18581;DHT22;9420;50.876;7.012;2022-08-03T13:33:37;42.60;52.60
18581;DHT22;9420;50.876;7.012;2022-08-03T13:36:05;41.80;51.10
18581;DHT22;9420;50.876;7.012;2022-08-03T13:38:34;41.30;52.70
18581;DHT22;9420;50.876;7.012;2022-08-03T13:41:01;41.60;50.60
18581;DHT22;9420;50.876;7.012;2022-08-03T13:43:28;41.80;49.80
18581;DHT22;9420;50.876;7.012;2022-08-03T13:45:55;41.80;50.20
18581;DHT22;9420;50.876;7.012;2022-08-03T13:48:22;42.70;51.00
18581;DHT22;9420;50.876;7.012;2022-08-03T13:50:50;42.50;49.40
18581;DHT22;9420;50.876;7.012;2022-08-03T13:53:17;42.40;50.00
18581;DHT22;9420;50.876;7.012;2022-08-03T13:55:45;42.70;49.70
18581;DHT22;9420;50.876;7.012;2022-08-03T13:58:12;42.00;48.30
18581;DHT22;9420;50.876;7.012;2022-08-03T14:00:39;41.60;49.70
18581;DHT22;9420;50.876;7.012;2022-08-03T14:03:06;41.20;49.10
18581;DHT22;9420;50.876;7.012;2022-08-03T14:05:34;39.60;50.60
18581;DHT22;9420;50.876;7.012;2022-08-03T14:08:03;39.80;53.90
18581;DHT22;9420;50.876;7.012;2022-08-03T14:10:32;41.00;52.80
18581;DHT22;9420;50.876;7.012;2022-08-03T14:13:03;40.90;50.60
18581;DHT22;9420;50.876;7.012;2022-08-03T14:15:31;41.60;49.50
18581;DHT22;9420;50.876;7.012;2022-08-03T14:17:58;41.20;51.10
18581;DHT22;9420;50.876;7.012;2022-08-03T14:20:25;42.40;49.60
18581;DHT22;9420;50.876;7.012;2022-08-03T14:22:53;43.30;49.10
18581;DHT22;9420;50.876;7.012;2022-08-03T14:25:20;42.90;46.60
18581;DHT22;9420;50.876;7.012;2022-08-03T14:27:47;43.30;48.70
18581;DHT22;9420;50.876;7.012;2022-08-03T14:30:16;43.90;46.30
18581;DHT22;9420;50.876;7.012;2022-08-03T14:32:44;44.40;45.40
18581;DHT22;9420;50.876;7.012;2022-08-03T14:35:11;44.50;47.20
18581;DHT22;9420;50.876;7.012;2022-08-03T14:37:38;44.20;46.10
18581;DHT22;9420;50.876;7.012;2022-08-03T14:40:06;44.60;45.10
18581;DHT22;9420;50.876;7.012;2022-08-03T14:42:33;44.70;45.80
18581;DHT22;9420;50.876;7.012;2022-08-03T14:45:00;44.80;45.10
18581;DHT22;9420;50.876;7.012;2022-08-03T14:47:30;44.70;45.70
18581;DHT22;9420;50.876;7.012;2022-08-03T14:49:57;43.80;45.60
18581;DHT22;9420;50.876;7.012;2022-08-03T14:52:24;44.00;45.20
18581;DHT22;9420;50.876;7.012;2022-08-03T14:54:51;43.50;46.30
18581;DHT22;9420;50.876;7.012;2022-08-03T14:57:18;42.50;46.20
18581;DHT22;9420;50.876;7.012;2022-08-03T14:59:45;43.20;45.40
18581;DHT22;9420;50.876;7.012;2022-08-03T15:02:12;43.80;45.70
18581;DHT22;9420;50.876;7.012;2022-08-03T15:04:41;43.60;45.90
18581;DHT22;9420;50.876;7.012;2022-08-03T15:07:07;43.70;45.40
18581;DHT22;9420;50.876;7.012;2022-08-03T15:09:34;44.30;45.60
18581;DHT22;9420;50.876;7.012;2022-08-03T15:12:03;44.70;43.90
18581;DHT22;9420;50.876;7.012;2022-08-03T15:14:31;44.90;43.80
18581;DHT22;9420;50.876;7.012;2022-08-03T15:16:58;45.10;44.30
18581;DHT22;9420;50.876;7.012;2022-08-03T15:19:25;44.80;44.30
18581;DHT22;9420;50.876;7.012;2022-08-03T15:21:53;44.80;43.50
18581;DHT22;9420;50.876;7.012;2022-08-03T15:24:20;44.50;43.10
18581;DHT22;9420;50.876;7.012;2022-08-03T15:26:48;44.30;43.20
18581;DHT22;9420;50.876;7.012;2022-08-03T15:29:16;44.50;43.90
18581;DHT22;9420;50.876;7.012;2022-08-03T15:31:44;44.30;43.20
18581;DHT22;9420;50.876;7.012;2022-08-03T15:34:11;44.20;43.60
18581;DHT22;9420;50.876;7.012;2022-08-03T15:36:38;44.30;44.10
18581;DHT22;9420;50.876;7.012;2022-08-03T15:39:06;44.50;45.10
18581;DHT22;9420;50.876;7.012;2022-08-03T15:41:33;44.20;43.60
18581;DHT22;9420;50.876;7.012;2022-08-03T15:44:00;44.40;43.60
18581;DHT22;9420;50.876;7.012;2022-08-03T15:46:28;44.30;43.90
18581;DHT22;9420;50.876;7.012;2022-08-03T15:48:55;44.00;43.60
18581;DHT22;9420;50.876;7.012;2022-08-03T15:51:22;43.80;43.50
18581;DHT22;9420;50.876;7.012;2022-08-03T15:53:48;43.50;44.20
18581;DHT22;9420;50.876;7.012;2022-08-03T15:56:17;43.50;45.10
18581;DHT22;9420;50.876;7.012;2022-08-03T15:58:44;43.40;43.80
18581;DHT22;9420;50.876;7.012;2022-08-03T16:01:12;43.30;44.70
18581;DHT22;9420;50.876;7.012;2022-08-03T16:03:39;42.90;44.60